Boncarbo, Colorado
Current Conditions -  °F | °C
As of 6:54 AM on Friday 24 Oct 2014 (Local Time) from KTAD Reporting Station
Clear Clear  
Wind Chill: 44°   Ceiling: Unl
Heat Index: 49°   Visibility: 10mi
Dew Point: 31°   Wind: 14mph
Humidity: 50%   Direction: 250°WSW
Pressure: 30.21"   Gusts: NA
Location:  37.22°N, 104.7°W
Report Text: KTAD 241254Z AUTO 25012KT 10SM CLR 09/M01 A3021 RMK AO2 SLP179 T00941006
Loading
Personal Weather Stations






























Interactive Weather Map
Tropical Storm Tracking
New forecast layout! Learn more

10-Day Weather Forecast

Advertisements
Track Severe Weather on mobile